sensor_id;sensor_type;location;lat;lon;timestamp;temperature;humidity
15690;DHT22;7945;48.816;11.506;2023-05-07T00:00:27;16.80;97.30
15690;DHT22;7945;48.816;11.506;2023-05-07T00:02:55;16.80;97.40
15690;DHT22;7945;48.816;11.506;2023-05-07T00:05:21;16.80;97.20
15690;DHT22;7945;48.816;11.506;2023-05-07T00:07:50;16.70;97.30
15690;DHT22;7945;48.816;11.506;2023-05-07T00:10:18;16.70;97.30
15690;DHT22;7945;48.816;11.506;2023-05-07T00:12:44;16.70;97.40
15690;DHT22;7945;48.816;11.506;2023-05-07T00:15:11;16.70;97.40
15690;DHT22;7945;48.816;11.506;2023-05-07T00:17:38;16.70;97.50
15690;DHT22;7945;48.816;11.506;2023-05-07T00:20:05;16.70;97.50
15690;DHT22;7945;48.816;11.506;2023-05-07T00:22:32;16.70;97.50
15690;DHT22;7945;48.816;11.506;2023-05-07T00:25:00;16.70;97.40
15690;DHT22;7945;48.816;11.506;2023-05-07T00:27:27;16.70;97.50
15690;DHT22;7945;48.816;11.506;2023-05-07T00:29:54;16.60;97.50
15690;DHT22;7945;48.816;11.506;2023-05-07T00:32:20;16.60;97.50
15690;DHT22;7945;48.816;11.506;2023-05-07T00:34:47;16.60;97.50
15690;DHT22;7945;48.816;11.506;2023-05-07T00:37:14;16.60;97.50
15690;DHT22;7945;48.816;11.506;2023-05-07T00:39:41;16.50;97.70
15690;DHT22;7945;48.816;11.506;2023-05-07T00:42:09;16.50;97.70
15690;DHT22;7945;48.816;11.506;2023-05-07T00:44:36;16.50;97.70
15690;DHT22;7945;48.816;11.506;2023-05-07T00:47:03;16.50;97.70
15690;DHT22;7945;48.816;11.506;2023-05-07T00:49:37;16.40;97.80
15690;DHT22;7945;48.816;11.506;2023-05-07T00:52:05;16.40;97.80
15690;DHT22;7945;48.816;11.506;2023-05-07T00:54:32;16.40;97.80
15690;DHT22;7945;48.816;11.506;2023-05-07T00:57:00;16.40;98.00
15690;DHT22;7945;48.816;11.506;2023-05-07T00:59:30;16.40;97.90
15690;DHT22;7945;48.816;11.506;2023-05-07T01:01:58;16.40;97.90
15690;DHT22;7945;48.816;11.506;2023-05-07T01:04:25;16.40;97.90
15690;DHT22;7945;48.816;11.506;2023-05-07T01:06:52;16.40;98.00
15690;DHT22;7945;48.816;11.506;2023-05-07T01:09:21;16.30;98.10
15690;DHT22;7945;48.816;11.506;2023-05-07T01:11:49;16.30;98.10
15690;DHT22;7945;48.816;11.506;2023-05-07T01:14:17;16.30;98.20
15690;DHT22;7945;48.816;11.506;2023-05-07T01:16:45;16.30;98.30
15690;DHT22;7945;48.816;11.506;2023-05-07T01:19:12;16.30;98.30
15690;DHT22;7945;48.816;11.506;2023-05-07T01:21:44;16.30;98.20
15690;DHT22;7945;48.816;11.506;2023-05-07T01:24:13;16.30;98.10
15690;DHT22;7945;48.816;11.506;2023-05-07T01:26:41;16.30;98.20
15690;DHT22;7945;48.816;11.506;2023-05-07T01:29:08;16.30;98.20
15690;DHT22;7945;48.816;11.506;2023-05-07T01:31:36;16.30;98.40
15690;DHT22;7945;48.816;11.506;2023-05-07T01:34:03;16.30;98.30
15690;DHT22;7945;48.816;11.506;2023-05-07T01:36:32;16.30;98.30
15690;DHT22;7945;48.816;11.506;2023-05-07T01:38:59;16.30;98.40
15690;DHT22;7945;48.816;11.506;2023-05-07T01:41:27;16.30;98.30
15690;DHT22;7945;48.816;11.506;2023-05-07T01:43:56;16.20;98.30
15690;DHT22;7945;48.816;11.506;2023-05-07T01:46:23;16.20;98.40
15690;DHT22;7945;48.816;11.506;2023-05-07T01:48:51;16.20;98.40
15690;DHT22;7945;48.816;11.506;2023-05-07T01:51:17;16.20;98.50
15690;DHT22;7945;48.816;11.506;2023-05-07T01:53:45;16.20;98.50
15690;DHT22;7945;48.816;11.506;2023-05-07T01:56:16;16.20;98.60
15690;DHT22;7945;48.816;11.506;2023-05-07T01:58:44;16.20;98.50
15690;DHT22;7945;48.816;11.506;2023-05-07T02:01:11;16.10;98.40
15690;DHT22;7945;48.816;11.506;2023-05-07T02:03:37;16.10;98.50
15690;DHT22;7945;48.816;11.506;2023-05-07T02:06:04;16.10;98.50
15690;DHT22;7945;48.816;11.506;2023-05-07T02:08:31;16.10;98.50
15690;DHT22;7945;48.816;11.506;2023-05-07T02:10:58;16.10;98.60
15690;DHT22;7945;48.816;11.506;2023-05-07T02:13:26;16.10;98.60
15690;DHT22;7945;48.816;11.506;2023-05-07T02:15:54;16.10;98.60
15690;DHT22;7945;48.816;11.506;2023-05-07T02:18:21;16.10;98.60
15690;DHT22;7945;48.816;11.506;2023-05-07T02:20:47;16.10;98.60
15690;DHT22;7945;48.816;11.506;2023-05-07T02:23:14;16.00;98.70
15690;DHT22;7945;48.816;11.506;2023-05-07T02:25:41;16.00;98.70
15690;DHT22;7945;48.816;11.506;2023-05-07T02:28:08;16.00;98.80
15690;DHT22;7945;48.816;11.506;2023-05-07T02:30:36;16.00;98.80
15690;DHT22;7945;48.816;11.506;2023-05-07T02:33:04;16.00;98.70
15690;DHT22;7945;48.816;11.506;2023-05-07T02:35:31;15.90;98.90
15690;DHT22;7945;48.816;11.506;2023-05-07T02:37:58;15.90;98.90
15690;DHT22;7945;48.816;11.506;2023-05-07T02:40:25;15.90;99.10
15690;DHT22;7945;48.816;11.506;2023-05-07T02:42:51;15.80;99.10
15690;DHT22;7945;48.816;11.506;2023-05-07T02:45:18;15.80;99.20
15690;DHT22;7945;48.816;11.506;2023-05-07T02:47:45;15.80;99.30
15690;DHT22;7945;48.816;11.506;2023-05-07T02:50:13;15.80;99.30
15690;DHT22;7945;48.816;11.506;2023-05-07T02:52:40;15.80;99.20
15690;DHT22;7945;48.816;11.506;2023-05-07T02:55:07;15.70;99.30
15690;DHT22;7945;48.816;11.506;2023-05-07T02:57:34;15.70;99.40
15690;DHT22;7945;48.816;11.506;2023-05-07T03:00:10;15.70;99.40
15690;DHT22;7945;48.816;11.506;2023-05-07T03:02:37;15.70;99.50
15690;DHT22;7945;48.816;11.506;2023-05-07T03:05:05;15.70;99.60
15690;DHT22;7945;48.816;11.506;2023-05-07T03:07:33;15.70;99.60
15690;DHT22;7945;48.816;11.506;2023-05-07T03:10:00;15.70;99.60
15690;DHT22;7945;48.816;11.506;2023-05-07T03:12:27;15.60;99.60
15690;DHT22;7945;48.816;11.506;2023-05-07T03:14:53;15.60;99.70
15690;DHT22;7945;48.816;11.506;2023-05-07T03:17:20;15.50;99.90
15690;DHT22;7945;48.816;11.506;2023-05-07T03:19:47;15.50;99.90
15690;DHT22;7945;48.816;11.506;2023-05-07T03:22:14;15.50;99.80
15690;DHT22;7945;48.816;11.506;2023-05-07T03:24:42;15.60;99.90
15690;DHT22;7945;48.816;11.506;2023-05-07T03:27:09;15.60;99.90
15690;DHT22;7945;48.816;11.506;2023-05-07T03:29:35;15.60;99.80
15690;DHT22;7945;48.816;11.506;2023-05-07T03:32:02;15.60;99.90
15690;DHT22;7945;48.816;11.506;2023-05-07T03:34:29;15.50;99.90
15690;DHT22;7945;48.816;11.506;2023-05-07T03:36:55;15.60;99.90
15690;DHT22;7945;48.816;11.506;2023-05-07T03:39:22;15.50;99.90
15690;DHT22;7945;48.816;11.506;2023-05-07T03:41:50;15.50;99.90
15690;DHT22;7945;48.816;11.506;2023-05-07T03:44:17;15.50;99.80
15690;DHT22;7945;48.816;11.506;2023-05-07T03:46:43;15.50;99.90
15690;DHT22;7945;48.816;11.506;2023-05-07T03:49:10;15.50;99.90
15690;DHT22;7945;48.816;11.506;2023-05-07T03:51:37;15.50;99.90
15690;DHT22;7945;48.816;11.506;2023-05-07T03:54:04;15.40;99.90
15690;DHT22;7945;48.816;11.506;2023-05-07T03:56:30;15.40;99.90
15690;DHT22;7945;48.816;11.506;2023-05-07T03:59:00;15.50;99.90
15690;DHT22;7945;48.816;11.506;2023-05-07T04:01:27;15.50;99.90
15690;DHT22;7945;48.816;11.506;2023-05-07T04:03:53;15.50;99.90
15690;DHT22;7945;48.816;11.506;2023-05-07T04:06:20;15.50;99.90
15690;DHT22;7945;48.816;11.506;2023-05-07T04:08:47;15.50;99.90
15690;DHT22;7945;48.816;11.506;2023-05-07T04:11:14;15.50;99.90
15690;DHT22;7945;48.816;11.506;2023-05-07T04:13:40;15.50;99.90
15690;DHT22;7945;48.816;11.506;2023-05-07T04:16:08;15.50;99.90
15690;DHT22;7945;48.816;11.506;2023-05-07T04:18:35;15.50;99.90
15690;DHT22;7945;48.816;11.506;2023-05-07T04:21:02;15.50;99.90
15690;DHT22;7945;48.816;11.506;2023-05-07T04:23:29;15.50;99.90
15690;DHT22;7945;48.816;11.506;2023-05-07T04:25:55;15.50;99.90
15690;DHT22;7945;48.816;11.506;2023-05-07T04:28:22;15.50;99.90
15690;DHT22;7945;48.816;11.506;2023-05-07T04:30:49;15.50;99.90
15690;DHT22;7945;48.816;11.506;2023-05-07T04:33:18;15.40;99.90
15690;DHT22;7945;48.816;11.506;2023-05-07T04:35:45;15.40;99.90
15690;DHT22;7945;48.816;11.506;2023-05-07T04:38:11;15.40;99.90
15690;DHT22;7945;48.816;11.506;2023-05-07T04:40:38;15.40;99.90
15690;DHT22;7945;48.816;11.506;2023-05-07T04:43:05;15.40;99.90
15690;DHT22;7945;48.816;11.506;2023-05-07T04:45:32;15.40;99.90
15690;DHT22;7945;48.816;11.506;2023-05-07T04:47:59;15.50;99.90
15690;DHT22;7945;48.816;11.506;2023-05-07T04:50:27;15.50;99.90
15690;DHT22;7945;48.816;11.506;2023-05-07T04:52:54;15.50;99.90
15690;DHT22;7945;48.816;11.506;2023-05-07T04:55:20;15.60;99.90
15690;DHT22;7945;48.816;11.506;2023-05-07T04:57:47;15.70;99.90
15690;DHT22;7945;48.816;11.506;2023-05-07T05:00:14;15.70;99.90
15690;DHT22;7945;48.816;11.506;2023-05-07T05:02:42;15.80;99.90
15690;DHT22;7945;48.816;11.506;2023-05-07T05:05:08;15.90;99.90
15690;DHT22;7945;48.816;11.506;2023-05-07T05:07:37;16.00;99.90
15690;DHT22;7945;48.816;11.506;2023-05-07T05:10:05;16.20;99.90
15690;DHT22;7945;48.816;11.506;2023-05-07T05:12:32;16.40;99.80
15690;DHT22;7945;48.816;11.506;2023-05-07T05:14:59;16.70;99.50
15690;DHT22;7945;48.816;11.506;2023-05-07T05:17:25;17.00;99.00
15690;DHT22;7945;48.816;11.506;2023-05-07T05:19:52;17.60;98.30
15690;DHT22;7945;48.816;11.506;2023-05-07T05:22:19;18.00;97.80
15690;DHT22;7945;48.816;11.506;2023-05-07T05:24:47;18.10;97.40
15690;DHT22;7945;48.816;11.506;2023-05-07T05:27:13;18.50;97.00
15690;DHT22;7945;48.816;11.506;2023-05-07T05:29:40;18.70;96.70
15690;DHT22;7945;48.816;11.506;2023-05-07T05:32:07;18.60;97.00
15690;DHT22;7945;48.816;11.506;2023-05-07T05:34:33;18.30;97.50
15690;DHT22;7945;48.816;11.506;2023-05-07T05:37:00;18.40;98.00
15690;DHT22;7945;48.816;11.506;2023-05-07T05:39:27;18.50;98.00
15690;DHT22;7945;48.816;11.506;2023-05-07T05:41:55;18.60;97.80
15690;DHT22;7945;48.816;11.506;2023-05-07T05:44:21;18.60;97.80
15690;DHT22;7945;48.816;11.506;2023-05-07T05:46:48;18.60;97.80
15690;DHT22;7945;48.816;11.506;2023-05-07T05:49:15;18.60;97.70
15690;DHT22;7945;48.816;11.506;2023-05-07T05:51:42;18.80;97.40
15690;DHT22;7945;48.816;11.506;2023-05-07T05:54:09;18.90;97.10
15690;DHT22;7945;48.816;11.506;2023-05-07T05:56:36;19.30;96.30
15690;DHT22;7945;48.816;11.506;2023-05-07T05:59:04;19.80;95.60
15690;DHT22;7945;48.816;11.506;2023-05-07T06:01:31;20.20;95.10
15690;DHT22;7945;48.816;11.506;2023-05-07T06:03:58;20.20;94.70
15690;DHT22;7945;48.816;11.506;2023-05-07T06:06:25;20.20;95.10
15690;DHT22;7945;48.816;11.506;2023-05-07T06:08:52;20.10;94.90
15690;DHT22;7945;48.816;11.506;2023-05-07T06:11:19;20.00;95.20
15690;DHT22;7945;48.816;11.506;2023-05-07T06:15:21;20.60;95.50
15690;DHT22;7945;48.816;11.506;2023-05-07T06:17:48;19.70;95.70
15690;DHT22;7945;48.816;11.506;2023-05-07T06:20:15;19.60;95.90
15690;DHT22;7945;48.816;11.506;2023-05-07T06:22:42;19.50;96.00
15690;DHT22;7945;48.816;11.506;2023-05-07T06:25:09;19.40;96.10
15690;DHT22;7945;48.816;11.506;2023-05-07T06:27:36;19.20;96.40
15690;DHT22;7945;48.816;11.506;2023-05-07T06:30:03;19.00;96.70
15690;DHT22;7945;48.816;11.506;2023-05-07T06:32:31;18.90;97.20
15690;DHT22;7945;48.816;11.506;2023-05-07T06:34:58;18.60;97.20
15690;DHT22;7945;48.816;11.506;2023-05-07T06:37:25;18.30;97.80
15690;DHT22;7945;48.816;11.506;2023-05-07T06:39:52;18.10;98.20
15690;DHT22;7945;48.816;11.506;2023-05-07T06:42:18;18.10;98.40
15690;DHT22;7945;48.816;11.506;2023-05-07T06:44:45;18.10;98.30
15690;DHT22;7945;48.816;11.506;2023-05-07T06:47:12;18.00;98.40
15690;DHT22;7945;48.816;11.506;2023-05-07T06:49:40;18.00;98.40
15690;DHT22;7945;48.816;11.506;2023-05-07T06:52:07;18.00;98.50
15690;DHT22;7945;48.816;11.506;2023-05-07T06:54:33;18.00;98.40
15690;DHT22;7945;48.816;11.506;2023-05-07T06:57:00;18.00;98.60
15690;DHT22;7945;48.816;11.506;2023-05-07T06:59:27;18.10;98.60
15690;DHT22;7945;48.816;11.506;2023-05-07T07:01:53;18.10;98.80
15690;DHT22;7945;48.816;11.506;2023-05-07T07:04:20;18.20;98.90
15690;DHT22;7945;48.816;11.506;2023-05-07T07:06:49;18.30;98.80
15690;DHT22;7945;48.816;11.506;2023-05-07T07:09:18;18.20;98.90
15690;DHT22;7945;48.816;11.506;2023-05-07T07:11:44;18.30;99.20
15690;DHT22;7945;48.816;11.506;2023-05-07T07:14:11;18.30;99.10
15690;DHT22;7945;48.816;11.506;2023-05-07T07:16:38;18.30;99.00
15690;DHT22;7945;48.816;11.506;2023-05-07T07:19:05;18.30;99.30
15690;DHT22;7945;48.816;11.506;2023-05-07T07:21:32;18.20;98.60
15690;DHT22;7945;48.816;11.506;2023-05-07T07:24:00;18.20;99.20
15690;DHT22;7945;48.816;11.506;2023-05-07T07:26:26;18.30;99.40
15690;DHT22;7945;48.816;11.506;2023-05-07T07:28:53;18.30;98.90
15690;DHT22;7945;48.816;11.506;2023-05-07T07:31:20;18.30;98.70
15690;DHT22;7945;48.816;11.506;2023-05-07T07:33:46;18.40;99.20
15690;DHT22;7945;48.816;11.506;2023-05-07T07:36:15;18.40;98.80
15690;DHT22;7945;48.816;11.506;2023-05-07T07:38:42;18.50;99.10
15690;DHT22;7945;48.816;11.506;2023-05-07T07:41:10;18.50;98.70
15690;DHT22;7945;48.816;11.506;2023-05-07T07:43:37;18.20;99.30
15690;DHT22;7945;48.816;11.506;2023-05-07T07:46:04;17.70;99.90
15690;DHT22;7945;48.816;11.506;2023-05-07T07:48:30;18.50;99.20
15690;DHT22;7945;48.816;11.506;2023-05-07T07:50:57;18.90;98.90
15690;DHT22;7945;48.816;11.506;2023-05-07T07:53:24;18.80;99.60
15690;DHT22;7945;48.816;11.506;2023-05-07T07:55:51;18.60;99.20
15690;DHT22;7945;48.816;11.506;2023-05-07T07:58:19;18.50;99.50
15690;DHT22;7945;48.816;11.506;2023-05-07T08:00:47;18.50;99.40
15690;DHT22;7945;48.816;11.506;2023-05-07T08:03:14;18.40;99.50
15690;DHT22;7945;48.816;11.506;2023-05-07T08:05:42;18.40;99.50
15690;DHT22;7945;48.816;11.506;2023-05-07T08:08:09;18.50;99.80
15690;DHT22;7945;48.816;11.506;2023-05-07T08:10:36;18.70;99.70
15690;DHT22;7945;48.816;11.506;2023-05-07T08:13:04;18.80;99.80
15690;DHT22;7945;48.816;11.506;2023-05-07T08:15:32;18.90;99.70
15690;DHT22;7945;48.816;11.506;2023-05-07T08:18:00;18.90;99.90
15690;DHT22;7945;48.816;11.506;2023-05-07T08:20:28;18.90;99.60
15690;DHT22;7945;48.816;11.506;2023-05-07T08:22:55;18.90;99.40
15690;DHT22;7945;48.816;11.506;2023-05-07T08:25:21;18.90;99.50
15690;DHT22;7945;48.816;11.506;2023-05-07T08:27:48;18.90;99.50
15690;DHT22;7945;48.816;11.506;2023-05-07T08:30:15;18.90;99.50
15690;DHT22;7945;48.816;11.506;2023-05-07T08:32:43;18.90;99.20
15690;DHT22;7945;48.816;11.506;2023-05-07T08:35:10;19.00;99.10
15690;DHT22;7945;48.816;11.506;2023-05-07T08:37:37;19.10;99.00
15690;DHT22;7945;48.816;11.506;2023-05-07T08:40:04;19.10;99.10
15690;DHT22;7945;48.816;11.506;2023-05-07T08:42:33;19.20;99.10
15690;DHT22;7945;48.816;11.506;2023-05-07T08:45:03;19.20;99.30
15690;DHT22;7945;48.816;11.506;2023-05-07T08:47:34;19.30;99.20
15690;DHT22;7945;48.816;11.506;2023-05-07T08:50:07;19.30;99.20
15690;DHT22;7945;48.816;11.506;2023-05-07T08:52:35;19.30;99.40
15690;DHT22;7945;48.816;11.506;2023-05-07T08:55:03;19.30;99.10
15690;DHT22;7945;48.816;11.506;2023-05-07T08:57:30;19.30;99.40
15690;DHT22;7945;48.816;11.506;2023-05-07T08:59:57;19.40;99.10
15690;DHT22;7945;48.816;11.506;2023-05-07T09:02:23;19.40;98.70
15690;DHT22;7945;48.816;11.506;2023-05-07T09:04:50;19.40;98.50
15690;DHT22;7945;48.816;11.506;2023-05-07T09:07:19;19.40;98.80
15690;DHT22;7945;48.816;11.506;2023-05-07T09:09:46;19.40;99.00
15690;DHT22;7945;48.816;11.506;2023-05-07T09:12:13;19.40;98.80
15690;DHT22;7945;48.816;11.506;2023-05-07T09:14:40;19.40;98.80
15690;DHT22;7945;48.816;11.506;2023-05-07T09:17:06;19.50;98.80
15690;DHT22;7945;48.816;11.506;2023-05-07T09:19:33;19.60;98.50
15690;DHT22;7945;48.816;11.506;2023-05-07T09:22:00;19.60;99.20
15690;DHT22;7945;48.816;11.506;2023-05-07T09:24:29;19.60;98.80
15690;DHT22;7945;48.816;11.506;2023-05-07T09:27:00;19.70;98.70
15690;DHT22;7945;48.816;11.506;2023-05-07T09:29:27;19.80;98.90
15690;DHT22;7945;48.816;11.506;2023-05-07T09:31:55;19.90;98.00
15690;DHT22;7945;48.816;11.506;2023-05-07T09:34:22;20.00;98.30
15690;DHT22;7945;48.816;11.506;2023-05-07T09:36:49;20.10;98.40
15690;DHT22;7945;48.816;11.506;2023-05-07T09:39:16;20.20;98.20
15690;DHT22;7945;48.816;11.506;2023-05-07T09:41:45;20.30;98.00
15690;DHT22;7945;48.816;11.506;2023-05-07T09:44:12;20.40;98.10
15690;DHT22;7945;48.816;11.506;2023-05-07T09:46:42;20.50;98.20
15690;DHT22;7945;48.816;11.506;2023-05-07T09:49:13;20.60;97.80
15690;DHT22;7945;48.816;11.506;2023-05-07T09:51:48;20.60;97.70
15690;DHT22;7945;48.816;11.506;2023-05-07T09:54:15;20.70;97.90
15690;DHT22;7945;48.816;11.506;2023-05-07T09:56:45;20.70;97.20
15690;DHT22;7945;48.816;11.506;2023-05-07T09:59:13;20.70;97.50
15690;DHT22;7945;48.816;11.506;2023-05-07T10:01:41;20.90;97.30
15690;DHT22;7945;48.816;11.506;2023-05-07T10:04:10;21.00;96.50
15690;DHT22;7945;48.816;11.506;2023-05-07T10:06:38;21.20;96.90
15690;DHT22;7945;48.816;11.506;2023-05-07T10:09:05;21.30;96.40
15690;DHT22;7945;48.816;11.506;2023-05-07T10:11:33;21.40;95.70
15690;DHT22;7945;48.816;11.506;2023-05-07T10:14:02;21.40;95.10
15690;DHT22;7945;48.816;11.506;2023-05-07T10:16:32;21.40;95.90
15690;DHT22;7945;48.816;11.506;2023-05-07T10:19:02;21.50;94.90
15690;DHT22;7945;48.816;11.506;2023-05-07T10:21:30;21.60;95.10
15690;DHT22;7945;48.816;11.506;2023-05-07T10:23:59;21.60;95.60
15690;DHT22;7945;48.816;11.506;2023-05-07T10:26:28;21.60;94.50
15690;DHT22;7945;48.816;11.506;2023-05-07T10:28:59;21.80;94.90
15690;DHT22;7945;48.816;11.506;2023-05-07T10:31:52;21.90;93.90
15690;DHT22;7945;48.816;11.506;2023-05-07T10:34:23;22.00;94.00
15690;DHT22;7945;48.816;11.506;2023-05-07T10:36:52;21.90;94.40
15690;DHT22;7945;48.816;11.506;2023-05-07T10:39:20;22.00;94.10
15690;DHT22;7945;48.816;11.506;2023-05-07T10:41:48;22.00;93.10
15690;DHT22;7945;48.816;11.506;2023-05-07T10:44:25;22.10;93.80
15690;DHT22;7945;48.816;11.506;2023-05-07T10:47:17;22.20;92.90
15690;DHT22;7945;48.816;11.506;2023-05-07T10:50:20;22.20;92.40
15690;DHT22;7945;48.816;11.506;2023-05-07T10:53:22;22.20;93.30
15690;DHT22;7945;48.816;11.506;2023-05-07T10:56:24;22.20;92.20
15690;DHT22;7945;48.816;11.506;2023-05-07T10:58:53;22.20;92.10
15690;DHT22;7945;48.816;11.506;2023-05-07T11:01:50;22.20;92.30
15690;DHT22;7945;48.816;11.506;2023-05-07T11:04:20;22.40;91.50
15690;DHT22;7945;48.816;11.506;2023-05-07T11:10:02;22.50;91.70
15690;DHT22;7945;48.816;11.506;2023-05-07T11:12:53;22.50;90.90
15690;DHT22;7945;48.816;11.506;2023-05-07T11:18:14;22.50;89.30
15690;DHT22;7945;48.816;11.506;2023-05-07T11:20:47;22.50;90.30
15690;DHT22;7945;48.816;11.506;2023-05-07T11:26:44;22.60;90.10
15690;DHT22;7945;48.816;11.506;2023-05-07T11:29:12;22.60;89.80
15690;DHT22;7945;48.816;11.506;2023-05-07T11:31:40;22.60;89.70
15690;DHT22;7945;48.816;11.506;2023-05-07T11:34:06;22.70;88.00
15690;DHT22;7945;48.816;11.506;2023-05-07T11:36:36;22.90;90.90
15690;DHT22;7945;48.816;11.506;2023-05-07T11:39:23;23.00;90.90
15690;DHT22;7945;48.816;11.506;2023-05-07T11:41:50;23.00;90.40
15690;DHT22;7945;48.816;11.506;2023-05-07T11:44:17;23.00;90.40
15690;DHT22;7945;48.816;11.506;2023-05-07T11:46:44;23.20;90.30
15690;DHT22;7945;48.816;11.506;2023-05-07T11:49:11;23.20;90.20
15690;DHT22;7945;48.816;11.506;2023-05-07T11:51:40;23.20;89.10
15690;DHT22;7945;48.816;11.506;2023-05-07T11:54:08;23.20;89.70
15690;DHT22;7945;48.816;11.506;2023-05-07T11:56:37;23.10;90.00
15690;DHT22;7945;48.816;11.506;2023-05-07T11:59:04;23.10;90.30
15690;DHT22;7945;48.816;11.506;2023-05-07T12:01:31;23.10;89.80
15690;DHT22;7945;48.816;11.506;2023-05-07T12:03:58;23.10;89.80
15690;DHT22;7945;48.816;11.506;2023-05-07T12:06:25;23.20;88.90
15690;DHT22;7945;48.816;11.506;2023-05-07T12:08:53;23.20;90.20
15690;DHT22;7945;48.816;11.506;2023-05-07T12:11:25;23.20;88.20
15690;DHT22;7945;48.816;11.506;2023-05-07T12:13:53;23.30;88.20
15690;DHT22;7945;48.816;11.506;2023-05-07T12:16:20;23.30;88.00
15690;DHT22;7945;48.816;11.506;2023-05-07T12:18:47;23.40;86.90
15690;DHT22;7945;48.816;11.506;2023-05-07T12:21:15;23.50;88.00
15690;DHT22;7945;48.816;11.506;2023-05-07T12:23:43;23.60;88.00
15690;DHT22;7945;48.816;11.506;2023-05-07T12:26:11;23.60;86.70
15690;DHT22;7945;48.816;11.506;2023-05-07T12:28:38;23.50;86.60
15690;DHT22;7945;48.816;11.506;2023-05-07T12:31:06;23.40;86.90
15690;DHT22;7945;48.816;11.506;2023-05-07T12:33:33;23.40;84.70
15690;DHT22;7945;48.816;11.506;2023-05-07T12:36:03;23.30;84.80
15690;DHT22;7945;48.816;11.506;2023-05-07T12:38:34;23.40;85.30
15690;DHT22;7945;48.816;11.506;2023-05-07T12:41:01;23.40;85.60
15690;DHT22;7945;48.816;11.506;2023-05-07T12:43:29;23.40;85.20
15690;DHT22;7945;48.816;11.506;2023-05-07T12:45:59;23.40;84.90
15690;DHT22;7945;48.816;11.506;2023-05-07T12:48:26;23.40;84.60
15690;DHT22;7945;48.816;11.506;2023-05-07T12:50:54;23.50;85.40
15690;DHT22;7945;48.816;11.506;2023-05-07T12:53:23;23.50;85.00
15690;DHT22;7945;48.816;11.506;2023-05-07T12:55:52;23.50;84.70
15690;DHT22;7945;48.816;11.506;2023-05-07T12:58:20;23.50;85.30
15690;DHT22;7945;48.816;11.506;2023-05-07T13:00:49;23.50;84.40
15690;DHT22;7945;48.816;11.506;2023-05-07T13:03:24;23.50;83.60
15690;DHT22;7945;48.816;11.506;2023-05-07T13:05:52;23.60;84.10
15690;DHT22;7945;48.816;11.506;2023-05-07T13:08:29;23.70;83.80
15690;DHT22;7945;48.816;11.506;2023-05-07T13:10:57;23.70;82.50
15690;DHT22;7945;48.816;11.506;2023-05-07T13:13:24;23.80;84.80
15690;DHT22;7945;48.816;11.506;2023-05-07T13:15:52;23.80;84.00
15690;DHT22;7945;48.816;11.506;2023-05-07T13:18:19;23.90;84.50
15690;DHT22;7945;48.816;11.506;2023-05-07T13:20:46;23.80;83.90
15690;DHT22;7945;48.816;11.506;2023-05-07T13:23:13;23.80;82.30
15690;DHT22;7945;48.816;11.506;2023-05-07T13:25:39;23.80;84.00
15690;DHT22;7945;48.816;11.506;2023-05-07T13:28:06;23.70;81.60
15690;DHT22;7945;48.816;11.506;2023-05-07T13:30:33;23.70;81.20
15690;DHT22;7945;48.816;11.506;2023-05-07T13:33:01;23.80;80.50
15690;DHT22;7945;48.816;11.506;2023-05-07T13:35:28;23.80;80.80
15690;DHT22;7945;48.816;11.506;2023-05-07T13:37:55;23.80;81.60
15690;DHT22;7945;48.816;11.506;2023-05-07T13:40:22;23.70;81.90
15690;DHT22;7945;48.816;11.506;2023-05-07T13:42:49;23.70;81.00
15690;DHT22;7945;48.816;11.506;2023-05-07T13:45:17;23.70;80.80
15690;DHT22;7945;48.816;11.506;2023-05-07T13:47:44;23.80;80.10
15690;DHT22;7945;48.816;11.506;2023-05-07T13:50:13;23.90;80.30
15690;DHT22;7945;48.816;11.506;2023-05-07T13:52:41;24.00;80.30
15690;DHT22;7945;48.816;11.506;2023-05-07T13:55:08;24.00;79.80
15690;DHT22;7945;48.816;11.506;2023-05-07T13:57:35;23.90;80.50
15690;DHT22;7945;48.816;11.506;2023-05-07T14:00:02;23.80;79.30
15690;DHT22;7945;48.816;11.506;2023-05-07T14:02:30;23.70;79.80
15690;DHT22;7945;48.816;11.506;2023-05-07T14:04:57;23.60;80.40
15690;DHT22;7945;48.816;11.506;2023-05-07T14:07:25;23.60;81.70
15690;DHT22;7945;48.816;11.506;2023-05-07T14:09:52;23.60;80.90
15690;DHT22;7945;48.816;11.506;2023-05-07T14:12:18;23.50;81.70
15690;DHT22;7945;48.816;11.506;2023-05-07T14:14:45;23.50;82.20
15690;DHT22;7945;48.816;11.506;2023-05-07T14:17:12;23.50;80.50
15690;DHT22;7945;48.816;11.506;2023-05-07T14:19:39;23.50;79.10
15690;DHT22;7945;48.816;11.506;2023-05-07T14:22:05;23.50;80.30
15690;DHT22;7945;48.816;11.506;2023-05-07T14:24:33;23.50;80.60
15690;DHT22;7945;48.816;11.506;2023-05-07T14:27:00;23.60;80.30
15690;DHT22;7945;48.816;11.506;2023-05-07T14:29:28;23.70;81.00
15690;DHT22;7945;48.816;11.506;2023-05-07T14:31:55;23.60;81.40
15690;DHT22;7945;48.816;11.506;2023-05-07T14:34:22;23.50;81.30
15690;DHT22;7945;48.816;11.506;2023-05-07T14:36:50;23.50;81.70
15690;DHT22;7945;48.816;11.506;2023-05-07T14:39:18;23.50;81.30
15690;DHT22;7945;48.816;11.506;2023-05-07T14:41:47;23.40;81.80
15690;DHT22;7945;48.816;11.506;2023-05-07T14:44:14;23.50;81.10
15690;DHT22;7945;48.816;11.506;2023-05-07T14:46:41;23.50;80.50
15690;DHT22;7945;48.816;11.506;2023-05-07T14:49:07;23.40;81.80
15690;DHT22;7945;48.816;11.506;2023-05-07T14:51:41;23.40;82.40
15690;DHT22;7945;48.816;11.506;2023-05-07T14:54:08;23.40;82.00
15690;DHT22;7945;48.816;11.506;2023-05-07T14:56:35;23.40;82.50
15690;DHT22;7945;48.816;11.506;2023-05-07T14:59:03;23.30;81.80
15690;DHT22;7945;48.816;11.506;2023-05-07T15:03:14;23.30;82.30
15690;DHT22;7945;48.816;11.506;2023-05-07T15:05:41;23.30;87.50
15690;DHT22;7945;48.816;11.506;2023-05-07T15:08:08;23.30;89.40
15690;DHT22;7945;48.816;11.506;2023-05-07T15:10:35;23.30;88.10
15690;DHT22;7945;48.816;11.506;2023-05-07T15:13:06;23.30;87.40
15690;DHT22;7945;48.816;11.506;2023-05-07T15:15:33;23.30;86.30
15690;DHT22;7945;48.816;11.506;2023-05-07T15:18:00;23.30;86.80
15690;DHT22;7945;48.816;11.506;2023-05-07T15:20:29;23.30;85.70
15690;DHT22;7945;48.816;11.506;2023-05-07T15:22:57;23.30;84.60
15690;DHT22;7945;48.816;11.506;2023-05-07T15:25:24;23.30;84.80
15690;DHT22;7945;48.816;11.506;2023-05-07T15:27:51;23.20;84.50
15690;DHT22;7945;48.816;11.506;2023-05-07T15:30:18;23.20;85.00
15690;DHT22;7945;48.816;11.506;2023-05-07T15:32:46;23.10;84.50
15690;DHT22;7945;48.816;11.506;2023-05-07T15:35:12;23.10;84.30
15690;DHT22;7945;48.816;11.506;2023-05-07T15:37:41;23.10;83.50
15690;DHT22;7945;48.816;11.506;2023-05-07T15:40:08;23.10;83.20
15690;DHT22;7945;48.816;11.506;2023-05-07T15:42:36;23.10;83.60
15690;DHT22;7945;48.816;11.506;2023-05-07T15:45:03;23.10;82.90
15690;DHT22;7945;48.816;11.506;2023-05-07T15:47:33;23.10;82.30